Terminal Aerodrome Forecast
Issued by NWS

Home | Current Version | Previous Version | Text Only | Print | Product List | Glossary On
Versions: 1 2 3 4 5 6 7 8 9 10 11 12 13 14 15 16
000
FTUS45 KRIW 300532
TAFCPR
TAF
KCPR 300532Z 3006/0106 08011KT P6SM -RASN SCT007 OVC013
      TEMPO 3007/3011 5SM -SN BR BKN007
     FM301200 06010KT 3SM -SN OVC006
     FM302000 05012KT 5SM -SNRA OVC009
     FM010000 05012KT P6SM -SNRA SCT008 OVC012
     FM010400 08008KT P6SM VCSH OVC009=

USA.gov is the U.S. government's official web portal to all federal, state and local government web resources and services.